Time;durP1;ratioP1;P1;durP2;ratioP2;P2;SDS_P1;SDS_P2;PMS_P1;PMS_P2;Temp;Humidity;BMP_temperature;BMP_pressure;BME280_temperature;BME280_humidity;BME280_pressure;Samples;Min_cycle;Max_cycle;Signal;HPM_P1;HPM_P2
2023/03/22 00:00:47;;;;;;;12.23;10.93;;;7.80;1.00;;;;;;6247773;23;20181;-80
2023/03/22 00:03:13;;;;;;;13.97;11.57;;;7.80;1.00;;;;;;6221578;23;20165;-78
2023/03/22 00:05:39;;;;;;;11.67;10.33;;;7.80;1.00;;;;;;6221919;23;20554;-79
2023/03/22 00:08:06;;;;;;;12.73;11.40;;;7.70;1.00;;;;;;6249705;23;20160;-79
2023/03/22 00:10:32;;;;;;;12.67;11.43;;;7.70;64.00;;;;;;6247781;23;20177;-79
2023/03/22 00:13:00;;;;;;;15.87;12.90;;;7.70;99.90;;;;;;6247483;23;20145;-78
2023/03/22 00:15:28;;;;;;;13.50;11.70;;;7.70;11.70;;;;;;6244171;23;20177;-78
2023/03/22 00:17:57;;;;;;;14.23;12.10;;;7.70;9.80;;;;;;6243165;23;20150;-78
2023/03/22 00:20:24;;;;;;;14.67;11.77;;;7.70;90.90;;;;;;6244432;23;20153;-78
2023/03/22 00:22:50;;;;;;;13.37;11.97;;;7.70;99.90;;;;;;6217643;23;20181;-78
2023/03/22 00:25:16;;;;;;;14.57;12.87;;;7.70;99.90;;;;;;6216379;23;20632;-79
2023/03/22 00:27:42;;;;;;;15.23;13.67;;;7.70;99.90;;;;;;6216475;23;20161;-78
2023/03/22 00:30:09;;;;;;;14.83;13.30;;;7.70;99.90;;;;;;6218125;23;20189;-78
2023/03/22 00:32:39;;;;;;;15.83;12.90;;;7.80;1.00;;;;;;6244047;23;20666;-78
2023/03/22 00:35:05;;;;;;;14.90;13.30;;;7.80;1.00;;;;;;6217815;23;20689;-78
2023/03/22 00:37:33;;;;;;;14.73;13.13;;;7.80;1.00;;;;;;6217638;23;20158;-78
2023/03/22 00:40:07;;;;;;;14.63;13.13;;;7.80;1.00;;;;;;6243686;23;20142;-79
2023/03/22 00:42:34;;;;;;;14.70;13.10;;;7.80;1.00;;;;;;6217724;23;20207;-78
2023/03/22 00:45:00;;;;;;;14.40;12.90;;;7.80;1.00;;;;;;6242807;23;20185;-79
2023/03/22 00:47:26;;;;;;;16.07;14.23;;;7.70;1.00;;;;;;6216132;23;20564;-78
2023/03/22 00:49:51;;;;;;;15.43;13.83;;;7.80;1.00;;;;;;6216686;23;20276;-79
2023/03/22 00:52:17;;;;;;;15.00;13.37;;;7.80;1.00;;;;;;6243401;23;20161;-79
2023/03/22 00:54:42;;;;;;;15.30;13.70;;;7.80;1.00;;;;;;6215537;23;20185;-78
2023/03/22 00:57:08;;;;;;;15.13;13.03;;;7.80;1.00;;;;;;6217531;23;20161;-79
2023/03/22 00:59:37;;;;;;;18.73;13.80;;;7.80;1.00;;;;;;6243533;23;20156;-78
2023/03/22 01:02:04;;;;;;;14.90;13.20;;;7.80;1.00;;;;;;6243583;23;20611;-79
2023/03/22 01:04:30;;;;;;;14.90;13.13;;;7.80;1.00;;;;;;6243570;23;20559;-78
2023/03/22 01:07:00;;;;;;;13.43;12.10;;;7.90;1.00;;;;;;6216801;23;20264;-78
2023/03/22 01:09:30;;;;;;;14.57;12.80;;;7.90;1.00;;;;;;6216160;23;20157;-78
2023/03/22 01:12:00;;;;;;;15.40;12.27;;;8.00;1.00;;;;;;6217016;23;20208;-79
2023/03/22 01:14:27;;;;;;;13.60;12.20;;;8.00;1.00;;;;;;6244864;23;20621;-79
2023/03/22 01:16:56;;;;;;;14.10;12.60;;;8.00;1.00;;;;;;6220276;23;20164;-79
2023/03/22 01:19:23;;;;;;;13.57;12.10;;;8.00;1.00;;;;;;6247639;23;20150;-79
2023/03/22 01:21:49;;;;;;;13.43;11.60;;;8.00;1.00;;;;;;6247452;23;20150;-79
2023/03/22 01:24:15;;;;;;;14.53;13.13;;;8.00;1.00;;;;;;6220197;23;20178;-79
2023/03/22 01:26:41;;;;;;;13.60;12.13;;;8.00;1.00;;;;;;6218986;23;20334;-79
2023/03/22 01:29:08;;;;;;;14.60;13.10;;;7.90;1.00;;;;;;6219258;23;20168;-79
2023/03/22 01:31:34;;;;;;;13.53;12.17;;;7.90;1.00;;;;;;6218517;23;20197;-79
2023/03/22 01:33:59;;;;;;;14.60;13.00;;;7.90;1.00;;;;;;6245932;23;20170;-79
2023/03/22 01:36:25;;;;;;;16.80;13.47;;;7.90;1.00;;;;;;6245674;23;20594;-79
2023/03/22 01:38:50;;;;;;;17.50;12.90;;;7.90;1.00;;;;;;6215845;23;20160;-78
2023/03/22 01:41:18;;;;;;;14.37;12.87;;;7.80;1.00;;;;;;6217848;23;20161;-79
2023/03/22 01:43:43;;;;;;;14.77;13.00;;;7.80;1.00;;;;;;6244260;23;20226;-79
2023/03/22 01:46:09;;;;;;;15.07;13.00;;;7.80;1.00;;;;;;6244531;23;20550;-79
2023/03/22 01:48:47;;;;;;;14.90;13.33;;;7.80;1.00;;;;;;6243999;23;20667;-79
2023/03/22 01:51:17;;;;;;;15.20;13.43;;;7.70;1.00;;;;;;6244438;23;20217;-79
2023/03/22 01:54:06;;;;;;;16.30;13.43;;;7.70;1.00;;;;;;6216274;23;20180;-79
2023/03/22 01:56:35;;;;;;;15.77;14.17;;;7.70;1.00;;;;;;6244176;23;20196;-78
2023/03/22 01:59:01;;;;;;;15.53;13.63;;;7.60;1.00;;;;;;6244367;23;20177;-78
2023/03/22 02:01:28;;;;;;;17.30;13.57;;;7.60;1.00;;;;;;6244081;23;20158;-79
2023/03/22 02:04:18;;;;;;;16.50;14.80;;;7.60;1.00;;;;;;6243407;23;20185;-78
2023/03/22 02:06:47;;;;;;;15.87;13.80;;;7.60;1.00;;;;;;6217356;23;20160;-78
2023/03/22 02:09:16;;;;;;;16.10;14.37;;;7.60;1.00;;;;;;6245490;23;20137;-78
2023/03/22 02:12:17;;;;;;;15.73;13.73;;;7.70;1.00;;;;;;6244866;23;20561;-78
2023/03/22 02:15:09;;;;;;;15.90;14.23;;;7.70;1.00;;;;;;6244564;23;20522;-78
2023/03/22 02:18:06;;;;;;;17.47;14.40;;;7.70;1.00;;;;;;6216200;23;20149;-78
2023/03/22 02:20:36;;;;;;;16.23;14.20;;;7.80;1.00;;;;;;6242009;23;20138;-79
2023/03/22 02:23:20;;;;;;;17.33;14.50;;;7.80;1.00;;;;;;6242690;23;20223;-79
2023/03/22 02:26:04;;;;;;;16.70;13.03;;;7.80;1.00;;;;;;6241251;23;20153;-79
2023/03/22 02:29:01;;;;;;;16.97;14.97;;;7.80;1.00;;;;;;6241496;23;20153;-78
2023/03/22 02:32:11;;;;;;;16.03;14.13;;;7.90;1.00;;;;;;6243022;23;20625;-78
2023/03/22 02:35:01;;;;;;;16.73;14.00;;;7.90;1.00;;;;;;6215319;23;20228;-78
2023/03/22 02:37:55;;;;;;;15.37;13.73;;;8.00;1.00;;;;;;6242279;23;20138;-78
2023/03/22 02:40:30;;;;;;;15.80;13.53;;;8.00;1.00;;;;;;6242001;23;20150;-78
2023/03/22 02:43:37;;;;;;;15.63;13.70;;;8.00;99.90;;;;;;6242364;23;20478;-78
2023/03/22 02:46:20;;;;;;;16.07;14.37;;;8.10;99.90;;;;;;6215409;23;20154;-78
2023/03/22 02:48:52;;;;;;;16.13;13.30;;;8.00;99.90;;;;;;6214896;23;20210;-78
2023/03/22 02:51:25;;;;;;;19.17;15.07;;;8.00;99.90;;;;;;6214725;23;20213;-78
2023/03/22 02:54:07;;;;;;;15.87;14.03;;;8.00;99.90;;;;;;6241644;23;20245;-79
2023/03/22 02:56:39;;;;;;;15.83;14.20;;;8.00;99.90;;;;;;6242038;23;20218;-78
2023/03/22 02:59:08;;;;;;;17.47;14.33;;;8.00;99.90;;;;;;6241844;23;20145;-78
2023/03/22 03:01:45;;;;;;;15.13;13.13;;;8.00;99.90;;;;;;6241166;23;20224;-78
2023/03/22 03:04:19;;;;;;;18.13;14.73;;;8.10;99.90;;;;;;6214220;23;20189;-78
2023/03/22 03:06:48;;;;;;;17.83;15.47;;;8.10;99.90;;;;;;6241434;23;20217;-78
2023/03/22 03:09:17;;;;;;;17.17;14.77;;;8.10;99.90;;;;;;6214674;23;20165;-78
2023/03/22 03:11:46;;;;;;;17.57;14.47;;;8.20;99.90;;;;;;6241114;23;20162;-78
2023/03/22 03:14:27;;;;;;;18.30;15.17;;;8.20;99.90;;;;;;6241321;23;20165;-78
2023/03/22 03:17:11;;;;;;;15.40;13.70;;;8.30;1.00;;;;;;6215598;23;20241;-78
2023/03/22 03:19:52;;;;;;;15.83;13.77;;;8.40;1.00;;;;;;6243245;23;20628;-78
2023/03/22 03:22:46;;;;;;;15.67;13.90;;;8.50;1.00;;;;;;6216076;23;20173;-78
2023/03/22 03:25:29;;;;;;;15.77;14.17;;;8.50;1.00;;;;;;6242430;23;20196;-78
2023/03/22 03:28:08;;;;;;;16.37;13.23;;;8.50;1.00;;;;;;6215718;23;20207;-78
2023/03/22 03:30:43;;;;;;;15.40;13.13;;;8.50;1.00;;;;;;6241705;23;20166;-77
2023/03/22 03:33:15;;;;;;;15.20;12.97;;;8.50;1.00;;;;;;6242627;23;20141;-78
2023/03/22 03:36:00;;;;;;;15.10;13.33;;;8.40;1.00;;;;;;6242143;23;20498;-78
2023/03/22 03:38:30;;;;;;;15.10;13.40;;;8.40;1.00;;;;;;6215043;23;20146;-78
2023/03/22 03:41:07;;;;;;;14.27;12.67;;;8.40;1.00;;;;;;6215124;23;20586;-78
2023/03/22 03:43:34;;;;;;;16.30;13.20;;;8.40;1.00;;;;;;6242393;23;20141;-77
2023/03/22 03:46:00;;;;;;;15.83;12.67;;;8.30;1.00;;;;;;6215671;23;20165;-78
2023/03/22 03:48:32;;;;;;;16.17;14.07;;;8.30;1.00;;;;;;6242553;23;20521;-78
2023/03/22 03:51:00;;;;;;;17.60;13.67;;;8.30;1.00;;;;;;6214986;23;20208;-78
2023/03/22 03:53:25;;;;;;;16.83;13.83;;;8.20;1.00;;;;;;6242103;23;20150;-78
2023/03/22 03:55:51;;;;;;;15.60;14.00;;;8.20;1.00;;;;;;6242213;23;20161;-78
2023/03/22 03:58:16;;;;;;;18.23;14.37;;;8.20;1.00;;;;;;6215330;23;20149;-78
2023/03/22 04:00:44;;;;;;;15.57;13.53;;;8.20;1.00;;;;;;6214943;23;20268;-78
2023/03/22 04:03:10;;;;;;;16.20;14.23;;;8.20;1.00;;;;;;6214968;23;20169;-78
2023/03/22 04:05:36;;;;;;;15.27;13.67;;;8.10;1.00;;;;;;6242524;23;20177;-78
2023/03/22 04:08:02;;;;;;;15.60;13.97;;;8.10;1.00;;;;;;6242433;23;20161;-78
2023/03/22 04:10:27;;;;;;;16.07;14.50;;;8.00;1.00;;;;;;6241557;23;20185;-78
2023/03/22 04:12:53;;;;;;;15.00;13.40;;;8.00;1.00;;;;;;6242438;23;20146;-78
2023/03/22 04:15:18;;;;;;;15.37;13.77;;;7.90;1.00;;;;;;6241494;23;20177;-77
2023/03/22 04:17:45;;;;;;;16.00;14.30;;;7.90;1.00;;;;;;6241763;23;20241;-77
2023/03/22 04:20:12;;;;;;;15.10;13.57;;;7.90;1.00;;;;;;6215161;23;20485;-78
2023/03/22 04:22:38;;;;;;;16.57;14.80;;;7.90;72.30;;;;;;6241723;23;20173;-78
2023/03/22 04:25:10;;;;;;;17.07;14.17;;;7.90;99.90;;;;;;6241340;23;20253;-78
2023/03/22 04:27:39;;;;;;;15.03;13.50;;;7.90;99.90;;;;;;6240259;23;20137;-78
2023/03/22 04:30:09;;;;;;;16.47;14.30;;;7.80;99.90;;;;;;6237181;23;20525;-77
2023/03/22 04:32:36;;;;;;;16.37;14.47;;;7.80;99.90;;;;;;6236534;23;20212;-77
2023/03/22 04:35:02;;;;;;;17.43;15.60;;;7.80;99.90;;;;;;6236526;23;20201;-78
2023/03/22 04:37:30;;;;;;;16.90;15.10;;;7.80;1.00;;;;;;6236593;23;20308;-77
2023/03/22 04:39:56;;;;;;;17.37;15.10;;;7.80;1.00;;;;;;6236547;23;20502;-78
2023/03/22 04:42:22;;;;;;;16.40;14.63;;;7.90;1.00;;;;;;6236569;23;20204;-78
2023/03/22 04:44:47;;;;;;;15.60;13.70;;;7.80;1.00;;;;;;6236026;23;20626;-78
2023/03/22 04:47:13;;;;;;;18.37;15.80;;;7.80;1.00;;;;;;6209901;23;20161;-78
2023/03/22 04:49:39;;;;;;;17.63;15.57;;;7.80;1.00;;;;;;6236489;23;20261;-77
2023/03/22 04:52:06;;;;;;;18.53;15.67;;;7.80;1.00;;;;;;6236676;23;20631;-78
2023/03/22 04:54:32;;;;;;;17.60;15.63;;;7.80;1.00;;;;;;6236489;23;20235;-79
2023/03/22 04:56:58;;;;;;;16.10;14.43;;;7.70;1.00;;;;;;6237220;23;20156;-78
2023/03/22 04:59:23;;;;;;;16.93;14.63;;;7.80;1.00;;;;;;6236644;23;20154;-78
2023/03/22 05:01:50;;;;;;;16.93;14.97;;;7.70;1.00;;;;;;6239333;23;20154;-78
2023/03/22 05:04:16;;;;;;;17.60;15.77;;;7.70;1.00;;;;;;6239423;23;20176;-78
2023/03/22 05:06:42;;;;;;;16.60;14.83;;;7.70;1.00;;;;;;6212113;23;20154;-78
2023/03/22 05:09:10;;;;;;;16.97;14.97;;;7.70;1.00;;;;;;6212776;23;20237;-77
2023/03/22 05:11:35;;;;;;;17.37;14.57;;;7.80;1.00;;;;;;6238879;23;20182;-79
2023/03/22 05:14:01;;;;;;;18.53;16.50;;;7.80;1.00;;;;;;6239614;23;20219;-78
2023/03/22 05:16:28;;;;;;;16.47;14.77;;;7.90;24.40;;;;;;6212105;23;20613;-78
2023/03/22 05:18:53;;;;;;;18.00;15.23;;;7.90;1.00;;;;;;6238002;23;20215;-77
2023/03/22 05:21:26;;;;;;;17.90;16.00;;;8.00;1.00;;;;;;6211867;23;20244;-78
2023/03/22 05:23:53;;;;;;;18.53;15.50;;;8.00;1.00;;;;;;6211615;23;20193;-77
2023/03/22 05:26:19;;;;;;;16.63;14.83;;;8.20;1.00;;;;;;6239346;23;20165;-78
2023/03/22 05:28:45;;;;;;;15.87;13.93;;;8.40;1.00;;;;;;6212105;23;20157;-77
2023/03/22 05:31:13;;;;;;;17.10;15.30;;;8.50;1.00;;;;;;6239335;23;20226;-77
2023/03/22 05:33:40;;;;;;;17.20;14.37;;;8.70;1.00;;;;;;6239305;23;20173;-78
2023/03/22 05:36:07;;;;;;;17.63;14.73;;;8.90;1.00;;;;;;6239543;23;20623;-78
2023/03/22 05:38:32;;;;;;;15.50;13.83;;;8.80;99.90;;;;;;6212149;23;20598;-78
2023/03/22 05:40:58;;;;;;;16.30;13.97;;;8.80;99.90;;;;;;6211496;23;20271;-78
2023/03/22 05:43:23;;;;;;;17.10;14.03;;;8.90;99.90;;;;;;6211969;23;20268;-77
2023/03/22 05:45:49;;;;;;;15.43;13.83;;;8.90;99.90;;;;;;6212230;23;20161;-77
2023/03/22 05:48:15;;;;;;;16.90;13.77;;;9.00;99.90;;;;;;6238856;23;20248;-77
2023/03/22 05:50:41;;;;;;;16.93;13.23;;;9.10;99.90;;;;;;6237182;23;20185;-77
2023/03/22 05:53:07;;;;;;;15.70;13.63;;;9.00;99.90;;;;;;6210186;23;20157;-77
2023/03/22 05:55:32;;;;;;;16.50;12.77;;;9.00;99.90;;;;;;6237777;23;20224;-78
2023/03/22 05:58:00;;;;;;;15.77;12.90;;;9.10;99.90;;;;;;6238645;23;20150;-78
2023/03/22 06:00:27;;;;;;;15.60;12.80;;;9.20;99.90;;;;;;6238477;23;21037;-77
2023/03/22 06:02:55;;;;;;;14.27;12.67;;;9.20;99.90;;;;;;6238665;23;20545;-76
2023/03/22 06:05:21;;;;;;;14.13;12.70;;;9.20;99.90;;;;;;6238621;23;20231;-78
2023/03/22 06:07:47;;;;;;;14.47;12.63;;;9.20;99.90;;;;;;6238594;23;20488;-78
2023/03/22 06:10:14;;;;;;;14.00;12.50;;;9.20;99.90;;;;;;6238262;23;20181;-78
2023/03/22 06:12:40;;;;;;;14.23;11.90;;;9.20;99.90;;;;;;6211556;23;20232;-77
2023/03/22 06:15:06;;;;;;;13.37;12.07;;;9.30;99.90;;;;;;6211502;23;20884;-77
2023/03/22 06:17:32;;;;;;;13.53;12.00;;;9.40;99.90;;;;;;6238961;23;20487;-79
2023/03/22 06:19:58;;;;;;;14.73;12.37;;;9.40;99.90;;;;;;6211757;23;20248;-77
2023/03/22 06:22:23;;;;;;;13.80;12.40;;;9.40;99.90;;;;;;6211577;23;20252;-77
2023/03/22 06:24:49;;;;;;;13.93;12.03;;;9.40;99.90;;;;;;6238293;23;20221;-78
2023/03/22 06:27:16;;;;;;;14.10;12.60;;;9.40;99.90;;;;;;6238856;23;20185;-77
2023/03/22 06:29:43;;;;;;;13.13;11.83;;;9.50;99.90;;;;;;6211466;23;20189;-77
2023/03/22 06:32:09;;;;;;;15.27;12.67;;;9.50;99.90;;;;;;6238210;23;20154;-77
2023/03/22 06:34:35;;;;;;;18.03;13.03;;;9.60;99.90;;;;;;6211412;23;20188;-78
2023/03/22 06:37:01;;;;;;;13.23;11.93;;;9.60;99.90;;;;;;6238239;23;20498;-77
2023/03/22 06:39:26;;;;;;;13.67;12.27;;;9.70;99.90;;;;;;6238439;23;20134;-77
2023/03/22 06:41:52;;;;;;;14.47;11.97;;;9.80;99.90;;;;;;6237851;23;20157;-77
2023/03/22 06:44:18;;;;;;;14.03;12.07;;;9.80;99.90;;;;;;6211264;23;20209;-78
2023/03/22 06:46:43;;;;;;;13.70;11.07;;;9.90;99.90;;;;;;6237992;23;20224;-78
2023/03/22 06:49:09;;;;;;;14.10;11.88;;;10.00;99.90;;;;;;6238058;23;20598;-78
2023/03/22 06:51:35;;;;;;;13.13;11.73;;;10.10;99.90;;;;;;6238109;23;20521;-77
2023/03/22 06:54:00;;;;;;;12.80;11.37;;;10.20;99.90;;;;;;6239643;23;20178;-77
2023/03/22 06:56:26;;;;;;;13.93;11.65;;;10.30;99.90;;;;;;6239716;23;20236;-77
2023/03/22 06:58:53;;;;;;;13.73;11.40;;;10.40;99.90;;;;;;6238534;23;20208;-77
2023/03/22 07:01:19;;;;;;;12.75;11.45;;;10.50;99.90;;;;;;6239508;23;20160;-78
2023/03/22 07:03:45;;;;;;;12.85;11.43;;;10.60;95.90;;;;;;6212493;23;20178;-77
2023/03/22 07:06:11;;;;;;;11.50;10.25;;;10.70;83.90;;;;;;6240349;23;20149;-77
2023/03/22 07:08:37;;;;;;;12.48;11.18;;;10.80;65.60;;;;;;6239305;23;20199;-78
2023/03/22 07:11:04;;;;;;;13.75;11.43;;;10.80;52.00;;;;;;6212702;23;20181;-78
2023/03/22 07:13:29;;;;;;;12.95;11.20;;;10.90;60.40;;;;;;6239975;23;20173;-77
2023/03/22 07:15:56;;;;;;;12.00;10.80;;;10.90;51.30;;;;;;6240142;23;20153;-76
2023/03/22 07:18:22;;;;;;;11.35;10.23;;;11.00;40.90;;;;;;6240615;23;20609;-78
2023/03/22 07:20:48;;;;;;;11.18;10.07;;;11.20;41.10;;;;;;6239796;23;20153;-77
2023/03/22 07:23:14;;;;;;;12.70;10.05;;;11.20;30.00;;;;;;6240328;23;20180;-78
2023/03/22 07:25:40;;;;;;;11.48;10.27;;;11.20;28.60;;;;;;6213424;23;20185;-78
2023/03/22 07:28:06;;;;;;;13.90;10.48;;;11.20;26.00;;;;;;6240418;23;20161;-78
2023/03/22 07:30:34;;;;;;;13.50;11.07;;;11.30;29.40;;;;;;6214077;23;20181;-80
2023/03/22 07:33:00;;;;;;;11.40;9.90;;;11.60;21.70;;;;;;6216406;23;20232;-79
2023/03/22 07:35:26;;;;;;;12.57;9.63;;;11.40;12.80;;;;;;6215971;23;20227;-78
2023/03/22 07:37:52;;;;;;;10.65;9.60;;;11.50;10.90;;;;;;6215905;23;20162;-79
2023/03/22 07:40:17;;;;;;;10.95;9.85;;;11.60;7.70;;;;;;6242048;23;20207;-79
2023/03/22 07:42:43;;;;;;;11.10;9.90;;;11.70;5.80;;;;;;6239609;23;20150;-80
2023/03/22 07:45:09;;;;;;;10.82;9.63;;;11.80;4.60;;;;;;6237766;23;20660;-79
2023/03/22 07:47:35;;;;;;;11.02;9.88;;;12.10;1.70;;;;;;6238984;23;20614;-80
2023/03/22 07:50:01;;;;;;;10.75;9.65;;;12.30;1.00;;;;;;6241040;23;20215;-79
2023/03/22 07:52:26;;;;;;;10.25;9.23;;;12.50;1.00;;;;;;6214720;23;20162;-79
2023/03/22 07:54:52;;;;;;;11.52;8.93;;;12.70;1.00;;;;;;6214394;23;20184;-79
2023/03/22 07:57:17;;;;;;;9.50;8.50;;;13.00;1.00;;;;;;6215040;23;20176;-79
2023/03/22 07:59:43;;;;;;;9.75;8.77;;;13.00;1.00;;;;;;6241414;23;20154;-77
2023/03/22 08:02:10;;;;;;;11.93;8.85;;;12.90;1.00;;;;;;6213627;23;20590;-78
2023/03/22 08:04:36;;;;;;;10.40;8.60;;;12.80;1.00;;;;;;6239813;23;20176;-78
2023/03/22 08:07:01;;;;;;;9.95;8.63;;;12.70;1.00;;;;;;6214575;23;20165;-78
2023/03/22 08:09:27;;;;;;;9.48;8.48;;;12.50;1.00;;;;;;6242043;23;20476;-78
2023/03/22 08:11:52;;;;;;;8.82;8.02;;;12.50;1.00;;;;;;6242000;23;20152;-78
2023/03/22 08:14:18;;;;;;;9.10;8.23;;;12.50;1.00;;;;;;6214703;23;20188;-79
2023/03/22 08:16:44;;;;;;;9.10;8.15;;;12.50;1.00;;;;;;6242371;23;20150;-78
2023/03/22 08:19:10;;;;;;;10.38;9.02;;;12.60;1.00;;;;;;6216112;23;20196;-79
2023/03/22 08:21:36;;;;;;;9.30;8.30;;;12.60;1.00;;;;;;6242437;23;20244;-77
2023/03/22 08:24:03;;;;;;;10.43;8.75;;;12.70;1.00;;;;;;6241791;23;20680;-77
2023/03/22 08:26:29;;;;;;;10.07;7.03;;;12.60;1.00;;;;;;6242223;23;20153;-77
2023/03/22 08:28:55;;;;;;;7.97;7.18;;;12.40;1.00;;;;;;6215041;23;20832;-77
2023/03/22 08:31:21;;;;;;;8.40;7.25;;;12.30;1.00;;;;;;6242086;23;20181;-77
2023/03/22 08:33:47;;;;;;;7.85;6.90;;;12.30;1.00;;;;;;6242129;23;20227;-77
2023/03/22 08:36:16;;;;;;;9.05;6.93;;;12.30;1.00;;;;;;6242657;23;20146;-77
2023/03/22 08:38:41;;;;;;;8.77;6.63;;;12.30;1.00;;;;;;6241614;23;20154;-77
2023/03/22 08:41:08;;;;;;;9.10;7.47;;;12.40;1.00;;;;;;6242077;23;20632;-78
2023/03/22 08:43:33;;;;;;;9.25;7.40;;;12.40;1.00;;;;;;6214846;23;20158;-78
2023/03/22 08:45:59;;;;;;;8.15;7.13;;;12.40;1.00;;;;;;6215046;23;20165;-77
2023/03/22 08:48:27;;;;;;;9.43;7.53;;;12.50;1.00;;;;;;6241668;23;20233;-77
2023/03/22 08:50:53;;;;;;;8.10;7.05;;;12.80;1.00;;;;;;6240835;23;20181;-77
2023/03/22 08:53:19;;;;;;;7.55;6.72;;;12.90;1.00;;;;;;6212142;23;20834;-77
2023/03/22 08:55:44;;;;;;;7.88;6.82;;;13.00;1.00;;;;;;6239367;23;20150;-78
2023/03/22 08:58:18;;;;;;;7.90;7.05;;;13.10;1.00;;;;;;6238452;23;20142;-77
2023/03/22 09:00:45;;;;;;;8.63;6.78;;;13.00;1.00;;;;;;6237729;23;20138;-77
2023/03/22 09:03:10;;;;;;;9.50;7.28;;;13.00;1.00;;;;;;6238315;23;20261;-77
2023/03/22 09:05:36;;;;;;;7.47;6.70;;;13.00;1.00;;;;;;6236914;23;20685;-77
2023/03/22 09:08:04;;;;;;;7.90;6.13;;;13.10;1.00;;;;;;6238519;23;20154;-77
2023/03/22 09:10:30;;;;;;;7.32;6.05;;;13.20;1.00;;;;;;6212171;23;20178;-77
2023/03/22 09:12:56;;;;;;;7.38;6.30;;;13.30;1.00;;;;;;6213380;23;20156;-77
2023/03/22 09:15:22;;;;;;;7.78;5.90;;;13.40;1.00;;;;;;6238990;23;20263;-77
2023/03/22 09:17:47;;;;;;;8.35;6.20;;;13.50;1.00;;;;;;6238900;23;20149;-77
2023/03/22 09:20:13;;;;;;;7.95;6.25;;;13.40;1.00;;;;;;6239016;23;20150;-78
2023/03/22 09:22:39;;;;;;;7.10;5.85;;;13.50;1.00;;;;;;6239104;23;20177;-78
2023/03/22 09:25:06;;;;;;;8.57;6.25;;;13.70;1.00;;;;;;6239488;23;20248;-77
2023/03/22 09:27:31;;;;;;;7.82;5.82;;;13.80;1.00;;;;;;6239356;23;20216;-78
2023/03/22 09:29:57;;;;;;;6.88;5.60;;;13.90;1.00;;;;;;6211935;23;20255;-78
2023/03/22 09:32:22;;;;;;;12.55;6.10;;;14.00;1.00;;;;;;6239114;23;20216;-77
2023/03/22 09:34:48;;;;;;;6.15;4.93;;;13.90;1.00;;;;;;6239186;23;20176;-78
2023/03/22 09:37:14;;;;;;;8.27;5.68;;;13.80;1.00;;;;;;6212009;23;20160;-77
2023/03/22 09:39:40;;;;;;;6.85;4.50;;;13.80;1.00;;;;;;6235691;23;20156;-76
2023/03/22 09:42:25;;;;;;;9.18;5.10;;;13.90;1.00;;;;;;6235059;23;20175;-77
2023/03/22 09:44:52;;;;;;;14.75;5.00;;;14.10;1.00;;;;;;6238944;23;20193;-78
2023/03/22 09:47:26;;;;;;;6.53;4.50;;;14.40;1.00;;;;;;6214311;23;20154;-78
2023/03/22 09:50:01;;;;;;;5.68;4.43;;;14.50;1.00;;;;;;6241522;23;20495;-77
2023/03/22 09:52:26;;;;;;;7.60;4.45;;;14.40;1.00;;;;;;6240820;23;20217;-77
2023/03/22 09:54:52;;;;;;;6.95;4.18;;;14.30;1.00;;;;;;6210473;23;20270;-77
2023/03/22 09:57:32;;;;;;;6.15;4.13;;;14.20;1.00;;;;;;6211307;23;20165;-77
2023/03/22 10:00:23;;;;;;;5.53;4.13;;;14.20;1.00;;;;;;6211779;23;20532;-77
2023/03/22 10:03:27;;;;;;;6.15;4.35;;;14.10;1.00;;;;;;6211485;23;20149;-77
2023/03/22 10:06:08;;;;;;;6.90;3.97;;;14.20;1.00;;;;;;6210410;23;20472;-78
2023/03/22 10:08:46;;;;;;;5.03;4.10;;;14.30;1.00;;;;;;6212447;23;20157;-79
2023/03/22 10:11:33;;;;;;;4.57;3.90;;;14.50;1.00;;;;;;6210706;23;20184;-78
2023/03/22 10:14:09;;;;;;;6.55;4.07;;;14.50;1.00;;;;;;6237911;23;20176;-78
2023/03/22 10:16:35;;;;;;;7.35;4.32;;;14.60;1.00;;;;;;6213052;23;20729;-78
2023/03/22 10:19:20;;;;;;;4.47;3.70;;;14.60;1.00;;;;;;6238148;23;20169;-76
2023/03/22 10:21:48;;;;;;;7.32;4.10;;;14.60;1.00;;;;;;6236855;23;20156;-77
2023/03/22 10:24:18;;;;;;;5.78;4.00;;;14.40;1.00;;;;;;6211206;23;20194;-76
2023/03/22 10:26:46;;;;;;;4.57;3.88;;;14.30;1.00;;;;;;6238599;23;20154;-77
2023/03/22 10:29:29;;;;;;;4.93;4.13;;;14.10;1.00;;;;;;6240343;23;20146;-76
2023/03/22 10:32:05;;;;;;;5.93;4.20;;;14.00;1.00;;;;;;6238441;23;20256;-77
2023/03/22 10:34:31;;;;;;;7.00;4.65;;;13.90;1.00;;;;;;6239597;23;20625;-77
2023/03/22 10:37:00;;;;;;;6.68;4.13;;;13.80;1.00;;;;;;6239688;23;20150;-77
2023/03/22 10:39:34;;;;;;;5.63;4.25;;;13.80;1.00;;;;;;6240415;23;20134;-78
2023/03/22 10:42:03;;;;;;;4.78;3.80;;;13.90;1.00;;;;;;6239957;23;20154;-78
2023/03/22 10:44:34;;;;;;;4.65;3.70;;;14.00;1.00;;;;;;6241670;23;20165;-77
2023/03/22 10:47:06;;;;;;;5.78;3.38;;;14.00;1.00;;;;;;6240983;23;20134;-77
2023/03/22 10:49:37;;;;;;;5.32;3.20;;;13.90;1.00;;;;;;6241631;23;20130;-76
2023/03/22 10:52:22;;;;;;;3.88;3.40;;;13.70;1.00;;;;;;6213632;23;20177;-78
2023/03/22 10:54:48;;;;;;;4.13;3.08;;;13.60;1.00;;;;;;6238794;23;20177;-77
2023/03/22 10:57:14;;;;;;;4.88;3.10;;;13.50;1.00;;;;;;6239141;23;20191;-76
2023/03/22 10:59:55;;;;;;;5.45;3.67;;;13.60;1.00;;;;;;6212324;23;20174;-77
2023/03/22 11:02:30;;;;;;;4.75;3.40;;;13.80;1.00;;;;;;6211811;23;20632;-78
2023/03/22 11:05:02;;;;;;;3.97;3.03;;;13.80;1.00;;;;;;6211738;23;20180;-77
2023/03/22 11:07:35;;;;;;;5.63;3.60;;;13.90;1.00;;;;;;6211785;23;20510;-77
2023/03/22 11:10:09;;;;;;;4.75;3.88;;;14.00;1.00;;;;;;6238239;23;20169;-78
2023/03/22 11:12:45;;;;;;;5.30;3.70;;;13.90;1.00;;;;;;6212844;23;20149;-76
2023/03/22 11:15:24;;;;;;;5.75;3.35;;;14.30;1.00;;;;;;6212681;23;20526;-78
2023/03/22 11:17:50;;;;;;;4.35;3.25;;;14.00;1.00;;;;;;6212647;23;20157;-78
2023/03/22 11:20:17;;;;;;;5.57;3.30;;;14.10;1.00;;;;;;6239481;23;20183;-77
2023/03/22 11:22:46;;;;;;;5.13;3.30;;;14.20;1.00;;;;;;6238820;23;20162;-78
2023/03/22 11:25:28;;;;;;;3.17;2.75;;;14.20;1.00;;;;;;6212263;23;20224;-77
2023/03/22 11:28:05;;;;;;;5.13;2.63;;;14.00;1.00;;;;;;6237632;23;20137;-77
2023/03/22 11:30:32;;;;;;;2.95;2.60;;;14.10;1.00;;;;;;6237363;23;20260;-77
2023/03/22 11:33:18;;;;;;;4.13;2.58;;;14.10;1.00;;;;;;6237576;23;20153;-77
2023/03/22 11:35:47;;;;;;;3.95;2.50;;;14.00;1.00;;;;;;6237533;23;20146;-77
2023/03/22 11:38:43;;;;;;;17.73;3.30;;;13.90;1.00;;;;;;6237617;23;20185;-78
2023/03/22 11:41:25;;;;;;;5.88;2.78;;;14.00;1.00;;;;;;6236760;23;20744;-77
2023/03/22 11:44:12;;;;;;;4.15;2.60;;;14.20;1.00;;;;;;6238634;23;20205;-77
2023/03/22 11:46:38;;;;;;;4.78;2.25;;;14.50;1.00;;;;;;6212312;23;20150;-78
2023/03/22 11:49:11;;;;;;;4.13;2.35;;;14.80;1.00;;;;;;6240186;23;20276;-77
2023/03/22 11:51:38;;;;;;;4.22;2.38;;;15.10;1.00;;;;;;6211907;23;20292;-77
2023/03/22 11:54:12;;;;;;;18.38;2.85;;;14.80;1.00;;;;;;6238863;23;20204;-77
2023/03/22 11:56:47;;;;;;;5.43;2.20;;;14.70;1.00;;;;;;6239651;23;20142;-77
2023/03/22 11:59:26;;;;;;;3.65;2.13;;;14.90;1.00;;;;;;6239579;23;20149;-77
2023/03/22 12:02:27;;;;;;;4.30;2.28;;;15.00;1.00;;;;;;6210755;23;20237;-77
2023/03/22 12:05:04;;;;;;;3.60;2.20;;;14.90;1.00;;;;;;6236841;23;20173;-77
2023/03/22 12:07:33;;;;;;;4.20;2.28;;;14.90;1.00;;;;;;6210606;23;20152;-76
2023/03/22 12:10:20;;;;;;;4.60;2.25;;;15.00;1.00;;;;;;6238855;23;20174;-79
2023/03/22 12:12:51;;;;;;;3.22;2.15;;;15.00;1.00;;;;;;6237403;23;20634;-76
2023/03/22 12:15:32;;;;;;;3.05;2.17;;;15.00;1.00;;;;;;6236957;23;20173;-78
2023/03/22 12:18:07;;;;;;;4.15;2.30;;;14.80;1.00;;;;;;6238529;23;20190;-76
2023/03/22 12:20:41;;;;;;;5.45;2.42;;;14.60;1.00;;;;;;6238435;23;20150;-77
2023/03/22 12:23:18;;;;;;;3.92;2.42;;;14.60;1.00;;;;;;6209280;23;20204;-80
2023/03/22 12:25:59;;;;;;;4.10;2.08;;;14.60;1.00;;;;;;6209075;23;20177;-78
2023/03/22 12:28:40;;;;;;;4.72;2.88;;;14.50;1.00;;;;;;6238674;23;20152;-77
2023/03/22 12:31:11;;;;;;;3.95;2.40;;;14.50;1.00;;;;;;6211248;23;20177;-76
2023/03/22 12:33:45;;;;;;;3.60;2.53;;;14.50;1.00;;;;;;6209106;23;20181;-77
2023/03/22 12:36:17;;;;;;;3.88;2.20;;;14.40;1.00;;;;;;6210897;23;20232;-78
2023/03/22 12:38:56;;;;;;;4.90;2.65;;;14.30;1.00;;;;;;6211579;23;20156;-76
2023/03/22 12:41:37;;;;;;;5.18;2.40;;;14.40;1.00;;;;;;6238753;23;20184;-77
2023/03/22 12:44:28;;;;;;;4.43;2.83;;;14.40;1.00;;;;;;6211918;23;20205;-78
2023/03/22 12:47:17;;;;;;;3.88;2.28;;;14.50;1.00;;;;;;6239565;23;20181;-78
2023/03/22 12:50:02;;;;;;;3.28;2.60;;;14.50;1.00;;;;;;6238959;23;20142;-79
2023/03/22 12:52:37;;;;;;;5.85;2.58;;;14.50;1.00;;;;;;6210915;23;20283;-77
2023/03/22 12:55:04;;;;;;;4.30;2.70;;;14.50;1.00;;;;;;6238584;23;20172;-77
2023/03/22 12:57:30;;;;;;;4.40;3.00;;;14.50;1.00;;;;;;6212031;23;20157;-78
2023/03/22 13:00:04;;;;;;;3.78;2.65;;;14.80;1.00;;;;;;6239246;23;20201;-78
2023/03/22 13:02:33;;;;;;;5.30;3.00;;;14.70;1.00;;;;;;6238258;23;20134;-78
2023/03/22 13:05:05;;;;;;;4.53;2.90;;;14.70;1.00;;;;;;6236420;23;20504;-77